createdAt,value
2022-11-14T00:01:19.282Z,4.47
2022-11-14T00:04:06.169Z,3.37
2022-11-14T00:06:53.299Z,4.97
2022-11-14T00:09:43.161Z,5.43
2022-11-14T00:12:29.754Z,4.67
2022-11-14T00:15:16.569Z,5.87
2022-11-14T00:18:03.746Z,4.67
2022-11-14T00:20:51.029Z,5.67
2022-11-14T00:23:37.864Z,4.53
2022-11-14T00:26:24.762Z,4.40
2022-11-14T00:29:12.668Z,4.17
2022-11-14T00:31:59.423Z,5.20
2022-11-14T00:34:46.492Z,4.80
2022-11-14T00:37:33.219Z,4.37
2022-11-14T00:40:20.227Z,5.90
2022-11-14T00:43:06.926Z,5.47
2022-11-14T00:45:53.721Z,6.17
2022-11-14T00:48:40.664Z,5.03
2022-11-14T00:51:27.665Z,5.90
2022-11-14T00:54:14.539Z,5.97
2022-11-14T00:57:01.319Z,5.80
2022-11-14T00:59:48.279Z,6.17
2022-11-14T01:02:35.239Z,6.43
2022-11-14T01:05:22.136Z,5.60
2022-11-14T01:08:09.123Z,5.30
2022-11-14T01:10:55.830Z,5.50
2022-11-14T01:13:42.759Z,5.03
2022-11-14T01:16:29.458Z,4.87
2022-11-14T01:19:16.574Z,5.07
2022-11-14T01:22:06.450Z,4.30
2022-11-14T01:24:55.417Z,3.93
2022-11-14T01:27:42.472Z,3.87
2022-11-14T01:30:29.265Z,3.93
2022-11-14T01:33:16.143Z,3.50
2022-11-14T01:36:03.208Z,3.40
2022-11-14T01:38:53.228Z,3.53
2022-11-14T01:41:40.104Z,3.57
2022-11-14T01:44:49.459Z,2.97
2022-11-14T01:47:36.301Z,2.60
2022-11-14T01:50:23.098Z,2.67
2022-11-14T01:53:10.122Z,3.17
2022-11-14T01:55:58.820Z,3.53
2022-11-14T01:58:49.926Z,2.80
2022-11-14T02:01:38.894Z,2.87
2022-11-14T02:04:32.436Z,4.30
2022-11-14T02:07:19.110Z,2.70
2022-11-14T02:10:11.708Z,3.20
2022-11-14T02:12:58.649Z,2.60
2022-11-14T02:15:45.538Z,2.83
2022-11-14T02:18:32.471Z,3.13
2022-11-14T02:21:19.427Z,2.27
2022-11-14T02:24:13.686Z,3.43
2022-11-14T02:27:00.375Z,4.67
2022-11-14T02:29:47.246Z,4.70
2022-11-14T02:32:57.117Z,3.90
2022-11-14T02:35:40.960Z,3.77
2022-11-14T02:38:28.028Z,4.30
2022-11-14T02:41:14.991Z,3.57
2022-11-14T02:44:01.936Z,5.13
2022-11-14T02:46:48.941Z,4.80
2022-11-14T02:49:35.753Z,4.60
2022-11-14T02:52:22.647Z,4.90
2022-11-14T02:55:09.994Z,4.53
2022-11-14T02:57:56.923Z,4.50
2022-11-14T03:01:05.877Z,4.77
2022-11-14T03:03:50.155Z,4.07
2022-11-14T03:06:36.981Z,4.03
2022-11-14T03:09:23.776Z,3.80
2022-11-14T03:12:10.650Z,4.17
2022-11-14T03:14:57.649Z,5.40
2022-11-14T03:17:44.620Z,4.27
2022-11-14T03:20:31.578Z,3.50
2022-11-14T03:23:18.568Z,4.50
2022-11-14T03:26:07.712Z,3.53
2022-11-14T03:28:55.630Z,1.60
2022-11-14T03:31:42.223Z,2.77
2022-11-14T03:34:29.162Z,2.57
2022-11-14T03:37:16.074Z,2.93
2022-11-14T03:40:03.125Z,2.40
2022-11-14T03:42:50.080Z,2.70
2022-11-14T03:45:37.544Z,2.20
2022-11-14T03:48:24.185Z,2.30
2022-11-14T03:51:11.023Z,2.70
2022-11-14T03:53:58.165Z,2.50
2022-11-14T03:56:45.093Z,2.40
2022-11-14T03:59:31.870Z,2.63
2022-11-14T04:02:18.851Z,3.00
2022-11-14T04:05:05.933Z,2.53
2022-11-14T04:07:52.627Z,2.80
2022-11-14T04:10:39.609Z,2.03
2022-11-14T04:13:26.591Z,2.80
2022-11-14T04:16:13.430Z,2.63
2022-11-14T04:19:00.463Z,2.50
2022-11-14T04:21:47.323Z,11.77
2022-11-14T04:24:34.137Z,4.00
2022-11-14T04:27:21.138Z,2.03
2022-11-14T04:30:08.445Z,2.70
2022-11-14T04:32:55.438Z,2.40
2022-11-14T04:35:42.475Z,3.40
2022-11-14T04:38:29.778Z,4.97
2022-11-14T04:41:16.355Z,4.87
2022-11-14T04:44:03.485Z,3.60
2022-11-14T04:46:50.181Z,3.57
2022-11-14T04:49:37.149Z,3.17
2022-11-14T04:52:24.045Z,2.97
2022-11-14T04:55:11.164Z,2.73
2022-11-14T04:57:58.016Z,3.30
2022-11-14T05:00:44.558Z,3.57
2022-11-14T05:03:31.602Z,3.50
2022-11-14T05:06:18.475Z,2.23
2022-11-14T05:09:05.382Z,2.87
2022-11-14T05:11:52.607Z,3.67
2022-11-14T05:14:39.407Z,3.07
2022-11-14T05:17:26.524Z,4.50
2022-11-14T05:20:13.723Z,4.00
2022-11-14T05:23:00.656Z,3.63
2022-11-14T05:25:47.864Z,3.90
2022-11-14T05:28:34.819Z,3.40
2022-11-14T05:31:21.715Z,4.13
2022-11-14T05:34:08.747Z,3.27
2022-11-14T05:36:55.869Z,4.20
2022-11-14T05:39:42.986Z,4.07
2022-11-14T05:42:30.026Z,3.37
2022-11-14T05:45:16.905Z,3.43
2022-11-14T05:48:03.989Z,3.23
2022-11-14T05:50:55.369Z,4.23
2022-11-14T05:53:42.279Z,4.37
2022-11-14T05:56:29.200Z,3.73
2022-11-14T05:59:15.854Z,3.43
2022-11-14T06:02:02.832Z,3.33
2022-11-14T06:04:49.598Z,3.63
2022-11-14T06:07:37.441Z,3.43
2022-11-14T06:10:24.451Z,4.23
2022-11-14T06:13:11.519Z,3.53
2022-11-14T06:16:02.303Z,3.17
2022-11-14T06:18:49.600Z,3.63
2022-11-14T06:21:36.368Z,3.43
2022-11-14T06:24:23.203Z,3.67
2022-11-14T06:27:10.000Z,3.47
2022-11-14T06:29:56.905Z,3.80
2022-11-14T06:32:43.801Z,2.80
2022-11-14T06:35:33.425Z,3.37
2022-11-14T06:38:20.080Z,3.67
2022-11-14T06:41:17.662Z,3.03
2022-11-14T06:44:04.703Z,2.77
2022-11-14T06:46:51.816Z,3.73
2022-11-14T06:49:40.671Z,2.80
2022-11-14T06:52:27.584Z,4.53
2022-11-14T06:55:14.584Z,3.20
2022-11-14T06:58:01.446Z,2.93
2022-11-14T07:00:48.357Z,2.47
2022-11-14T07:03:35.328Z,3.30
2022-11-14T07:06:23.837Z,3.17
2022-11-14T07:09:11.053Z,2.90
2022-11-14T07:11:57.979Z,3.23
2022-11-14T07:14:45.124Z,3.33
2022-11-14T07:17:31.971Z,4.20
2022-11-14T07:20:19.058Z,3.60
2022-11-14T07:23:06.228Z,4.73
2022-11-14T07:25:53.036Z,4.57
2022-11-14T07:28:41.269Z,4.93
2022-11-14T07:31:28.234Z,5.60
2022-11-14T07:34:15.184Z,5.07
2022-11-14T07:37:02.127Z,6.20
2022-11-14T07:39:49.053Z,6.57
2022-11-14T07:42:35.911Z,7.17
2022-11-14T07:45:22.677Z,5.97
2022-11-14T07:48:09.612Z,6.37
2022-11-14T07:51:03.898Z,6.73
2022-11-14T07:53:52.964Z,5.53
2022-11-14T07:56:39.858Z,6.63
2022-11-14T07:59:26.660Z,6.57
2022-11-14T08:02:14.675Z,6.33
2022-11-14T08:05:01.536Z,6.60
2022-11-14T08:07:51.251Z,7.37
2022-11-14T08:10:37.922Z,8.40
2022-11-14T08:13:32.310Z,8.20
2022-11-14T08:16:19.812Z,8.03
2022-11-14T08:19:06.989Z,6.20
2022-11-14T08:21:53.650Z,7.60
2022-11-14T08:24:40.462Z,7.40
2022-11-14T08:27:27.501Z,9.10
2022-11-14T08:30:14.658Z,8.03
2022-11-14T08:33:05.433Z,9.57
2022-11-14T08:35:52.373Z,9.87
2022-11-14T08:38:39.325Z,7.43
2022-11-14T08:41:26.465Z,8.53
2022-11-14T08:44:13.151Z,8.53
2022-11-14T08:47:00.712Z,8.17
2022-11-14T08:49:47.534Z,7.53
2022-11-14T08:52:34.462Z,7.90
2022-11-14T08:55:21.589Z,6.80
2022-11-14T08:58:08.496Z,6.27
2022-11-14T09:00:55.314Z,6.80
2022-11-14T09:03:42.416Z,5.90
2022-11-14T09:06:29.368Z,5.67
2022-11-14T09:09:16.427Z,6.17
2022-11-14T09:12:03.107Z,5.97
2022-11-14T09:14:50.657Z,4.93
2022-11-14T09:17:37.649Z,3.77
2022-11-14T09:20:28.519Z,4.33
2022-11-14T09:23:19.432Z,3.63
2022-11-14T09:26:09.854Z,3.13
2022-11-14T09:28:56.993Z,5.60
2022-11-14T09:31:43.785Z,5.20
2022-11-14T09:34:30.715Z,4.60
2022-11-14T09:37:17.820Z,4.63
2022-11-14T09:40:05.047Z,5.37
2022-11-14T09:42:54.867Z,6.27
2022-11-14T09:45:44.225Z,5.47
2022-11-14T09:48:31.507Z,6.73
2022-11-14T09:51:41.551Z,6.50
2022-11-14T09:54:32.113Z,7.07
2022-11-14T09:57:20.086Z,8.70
2022-11-14T10:00:35.712Z,8.50
2022-11-14T10:03:43.873Z,6.60
2022-11-14T10:06:36.249Z,7.97
2022-11-14T10:10:03.896Z,7.53
2022-11-14T10:13:12.570Z,7.67
2022-11-14T10:16:08.421Z,8.13
2022-11-14T10:19:03.980Z,7.20
2022-11-14T10:21:59.622Z,6.83
2022-11-14T10:24:49.080Z,6.97
2022-11-14T10:27:46.517Z,9.47
2022-11-14T10:31:05.960Z,7.73
2022-11-14T10:34:31.939Z,6.80
2022-11-14T10:37:25.701Z,7.10
2022-11-14T10:40:39.743Z,8.20
2022-11-14T10:43:40.595Z,7.63
2022-11-14T10:46:32.898Z,6.50
2022-11-14T10:49:24.268Z,7.30
2022-11-14T10:52:15.571Z,7.77
2022-11-14T10:55:08.572Z,6.90
2022-11-14T10:57:55.679Z,8.40
2022-11-14T11:00:42.556Z,7.70
2022-11-14T11:03:44.525Z,7.53
2022-11-14T11:06:31.701Z,7.67
2022-11-14T11:09:45.424Z,9.23
2022-11-14T11:12:46.450Z,7.73
2022-11-14T11:15:39.698Z,8.77
2022-11-14T11:18:27.271Z,6.97
2022-11-14T11:21:15.801Z,8.13
2022-11-14T11:24:02.818Z,6.70
2022-11-14T11:26:49.914Z,7.97
2022-11-14T11:29:36.810Z,7.10
2022-11-14T11:32:29.536Z,6.50
2022-11-14T11:35:17.518Z,5.80
2022-11-14T11:38:05.672Z,5.70
2022-11-14T11:40:54.875Z,5.93
2022-11-14T11:44:04.724Z,5.00
2022-11-14T11:46:55.810Z,21.00
2022-11-14T11:49:53.352Z,8.23
2022-11-14T11:52:56.610Z,6.20
2022-11-14T11:55:45.279Z,5.93
2022-11-14T11:58:36.334Z,5.77
2022-11-14T12:01:23.212Z,6.30
2022-11-14T12:04:10.054Z,8.33
2022-11-14T12:07:04.207Z,5.80
2022-11-14T12:10:09.837Z,5.23
2022-11-14T12:13:50.727Z,5.50
2022-11-14T12:17:15.032Z,5.30
2022-11-14T12:20:37.230Z,5.20
2022-11-14T12:23:54.127Z,4.53
2022-11-14T12:27:10.430Z,5.07
2022-11-14T12:30:13.986Z,8.00
2022-11-14T12:33:04.707Z,5.23
2022-11-14T12:35:59.094Z,6.73
2022-11-14T12:38:48.893Z,6.23
2022-11-14T12:41:38.357Z,6.53
2022-11-14T12:44:28.223Z,5.87
2022-11-14T12:47:17.376Z,5.67
2022-11-14T12:50:06.718Z,5.33
2022-11-14T12:52:56.404Z,5.40
2022-11-14T12:55:46.479Z,13.07
2022-11-14T12:59:02.627Z,6.10
2022-11-14T13:01:52.540Z,4.17
2022-11-14T13:05:16.563Z,3.90
2022-11-14T13:08:28.405Z,4.10
2022-11-14T13:12:05.374Z,3.57
2022-11-14T13:15:12.046Z,3.83
2022-11-14T13:18:32.125Z,3.87
2022-11-14T13:21:47.770Z,3.60
2022-11-14T13:25:02.890Z,3.90
2022-11-14T13:31:18.273Z,4.17
2022-11-14T13:34:42.181Z,12.70
2022-11-14T13:38:06.289Z,6.40
2022-11-14T13:41:41.362Z,5.20
2022-11-14T13:45:11.751Z,22.80
2022-11-14T13:48:20.126Z,3.80
2022-11-14T13:51:29.007Z,4.50
2022-11-14T13:54:18.271Z,3.80
2022-11-14T13:57:11.694Z,3.43
2022-11-14T14:00:20.687Z,8.33
2022-11-14T14:03:11.297Z,11.40
2022-11-14T14:06:13.548Z,7.27
2022-11-14T14:09:13.094Z,5.20
2022-11-14T14:12:21.671Z,5.23
2022-11-14T14:15:31.794Z,6.93
2022-11-14T14:18:50.485Z,17.73
2022-11-14T14:21:48.792Z,18.33
2022-11-14T14:24:41.424Z,41.07
2022-11-14T14:27:34.354Z,20.37
2022-11-14T14:30:21.301Z,18.63
2022-11-14T14:33:08.337Z,16.03
2022-11-14T14:35:55.520Z,27.67
2022-11-14T14:38:42.719Z,16.67
2022-11-14T14:41:31.700Z,8.20
2022-11-14T14:44:27.368Z,11.33
2022-11-14T14:47:32.748Z,6.67
2022-11-14T14:50:27.768Z,5.33
2022-11-14T14:53:27.853Z,4.10
2022-11-14T14:56:21.808Z,5.23
2022-11-14T14:59:24.857Z,5.23
2022-11-14T15:02:16.997Z,4.73
2022-11-14T15:05:04.257Z,4.57
2022-11-14T15:07:51.955Z,5.63
2022-11-14T15:10:39.312Z,4.33
2022-11-14T15:13:27.795Z,4.70
2022-11-14T15:16:14.499Z,4.10
2022-11-14T15:19:01.237Z,5.17
2022-11-14T15:22:06.763Z,4.70
2022-11-14T15:25:12.180Z,5.17
2022-11-14T15:28:00.579Z,6.07
2022-11-14T15:31:04.497Z,5.33
2022-11-14T15:34:05.339Z,4.90
2022-11-14T15:37:10.800Z,6.47
2022-11-14T15:40:10.497Z,5.70
2022-11-14T15:42:57.473Z,6.10
2022-11-14T15:45:46.654Z,5.87
2022-11-14T15:48:34.884Z,5.90
2022-11-14T15:51:52.024Z,5.43
2022-11-14T15:54:41.472Z,6.80
2022-11-14T15:57:28.572Z,6.70
2022-11-14T16:00:16.095Z,8.97
2022-11-14T16:03:02.792Z,8.67
2022-11-14T16:05:49.732Z,8.23
2022-11-14T16:08:36.540Z,9.00
2022-11-14T16:11:24.430Z,12.67
2022-11-14T16:14:12.401Z,14.07
2022-11-14T16:16:59.131Z,7.00
2022-11-14T16:19:48.170Z,5.40
2022-11-14T16:22:34.752Z,5.80
2022-11-14T16:25:26.690Z,6.93
2022-11-14T16:28:13.780Z,5.83
2022-11-14T16:31:00.764Z,5.77
2022-11-14T16:33:49.040Z,6.07
2022-11-14T16:36:35.622Z,6.47
2022-11-14T16:39:22.733Z,6.43
2022-11-14T16:42:09.952Z,6.07
2022-11-14T16:45:02.904Z,7.00
2022-11-14T16:47:50.390Z,6.53
2022-11-14T16:50:39.608Z,7.27
2022-11-14T16:53:26.381Z,8.03
2022-11-14T16:56:13.991Z,8.10
2022-11-14T16:59:01.810Z,7.40
2022-11-14T17:01:50.978Z,6.43
2022-11-14T17:04:37.682Z,7.27
2022-11-14T17:07:24.729Z,6.67
2022-11-14T17:10:12.558Z,6.30
2022-11-14T17:13:01.311Z,5.57
2022-11-14T17:15:49.862Z,4.93
2022-11-14T17:18:39.798Z,5.60
2022-11-14T17:21:27.878Z,5.23
2022-11-14T17:24:14.986Z,4.70
2022-11-14T17:27:03.853Z,4.67
2022-11-14T17:29:52.141Z,4.97
2022-11-14T17:32:39.453Z,5.40
2022-11-14T17:35:26.292Z,4.70
2022-11-14T17:38:13.264Z,4.77
2022-11-14T17:41:00.146Z,5.13
2022-11-14T17:43:47.276Z,5.27
2022-11-14T17:46:34.297Z,4.50
2022-11-14T17:49:21.537Z,4.70
2022-11-14T17:52:08.160Z,5.80
2022-11-14T17:54:55.005Z,5.50
2022-11-14T17:57:42.286Z,6.57
2022-11-14T18:00:30.945Z,5.77
2022-11-14T18:03:17.806Z,6.47
2022-11-14T18:06:12.626Z,6.07
2022-11-14T18:09:05.165Z,5.57
2022-11-14T18:11:51.984Z,6.17
2022-11-14T18:14:38.933Z,5.23
2022-11-14T18:17:25.914Z,5.47
2022-11-14T18:20:13.576Z,5.17
2022-11-14T18:23:01.545Z,6.07
2022-11-14T18:25:48.698Z,5.80
2022-11-14T18:28:35.389Z,6.53
2022-11-14T18:31:25.031Z,5.37
2022-11-14T18:34:12.022Z,5.37
2022-11-14T18:36:58.689Z,6.27
2022-11-14T18:39:46.969Z,6.10
2022-11-14T18:42:34.179Z,6.80
2022-11-14T18:45:21.010Z,7.10
2022-11-14T18:48:12.371Z,5.90
2022-11-14T18:51:04.296Z,6.60
2022-11-14T18:53:52.414Z,6.37
2022-11-14T18:56:40.773Z,6.00
2022-11-14T18:59:30.673Z,6.27
2022-11-14T19:02:18.036Z,6.53
2022-11-14T19:05:07.456Z,6.37
2022-11-14T19:07:54.394Z,6.10
2022-11-14T19:10:41.004Z,6.60
2022-11-14T19:13:28.504Z,6.07
2022-11-14T19:16:16.581Z,5.93
2022-11-14T19:19:04.321Z,5.60
2022-11-14T19:21:51.293Z,6.17
2022-11-14T19:24:38.812Z,5.17
2022-11-14T19:27:29.517Z,4.70
2022-11-14T19:30:17.510Z,5.33
2022-11-14T19:33:05.131Z,4.63
2022-11-14T19:35:51.844Z,5.40
2022-11-14T19:38:38.544Z,6.17
2022-11-14T19:41:28.715Z,4.30
2022-11-14T19:44:15.758Z,5.23
2022-11-14T19:47:02.818Z,5.43
2022-11-14T19:49:50.706Z,6.43
2022-11-14T19:52:38.076Z,4.83
2022-11-14T19:55:25.251Z,5.37
2022-11-14T19:58:13.901Z,5.30
2022-11-14T20:01:04.929Z,4.67
2022-11-14T20:03:56.645Z,5.70
2022-11-14T20:06:43.611Z,5.27
2022-11-14T20:09:30.713Z,5.43
2022-11-14T20:12:17.773Z,5.80
2022-11-14T20:15:05.136Z,6.90
2022-11-14T20:17:52.413Z,5.87
2022-11-14T20:20:40.544Z,5.43
2022-11-14T20:23:27.784Z,6.40
2022-11-14T20:26:15.879Z,5.97
2022-11-14T20:29:02.870Z,5.47
2022-11-14T20:31:49.930Z,4.67
2022-11-14T20:34:36.733Z,5.00
2022-11-14T20:37:23.670Z,4.63
2022-11-14T20:40:11.264Z,4.20
2022-11-14T20:42:58.004Z,5.23
2022-11-14T20:45:58.213Z,4.47
2022-11-14T20:48:45.580Z,4.67
2022-11-14T20:51:32.571Z,7.63
2022-11-14T20:54:19.276Z,5.23
2022-11-14T20:57:06.399Z,5.07
2022-11-14T20:59:54.440Z,5.23
2022-11-14T21:02:41.095Z,5.03
2022-11-14T21:05:28.142Z,4.60
2022-11-14T21:08:19.454Z,4.43
2022-11-14T21:11:07.921Z,5.57
2022-11-14T21:13:57.491Z,6.07
2022-11-14T21:16:44.199Z,5.07
2022-11-14T21:19:31.074Z,6.33
2022-11-14T21:22:18.001Z,4.53
2022-11-14T21:25:05.676Z,4.70
2022-11-14T21:27:52.691Z,5.10
2022-11-14T21:30:39.663Z,4.50
2022-11-14T21:33:30.864Z,5.87
2022-11-14T21:39:25.543Z,6.30
2022-11-14T21:42:18.056Z,4.53
2022-11-14T21:45:06.126Z,5.10
2022-11-14T21:47:53.238Z,6.80
2022-11-14T21:50:40.234Z,4.60
2022-11-14T21:53:28.363Z,3.33
2022-11-14T21:56:23.464Z,3.07
2022-11-14T21:59:16.832Z,4.07
2022-11-14T22:02:22.082Z,8.20
2022-11-14T22:05:09.075Z,4.07
2022-11-14T22:07:56.012Z,3.07
2022-11-14T22:10:42.820Z,7.83
2022-11-14T22:13:31.195Z,6.60
2022-11-14T22:16:19.869Z,5.13
2022-11-14T22:19:06.925Z,5.30
2022-11-14T22:21:54.584Z,5.10
2022-11-14T22:24:41.483Z,4.27
2022-11-14T22:27:28.408Z,4.17
2022-11-14T22:30:15.290Z,5.33
2022-11-14T22:33:02.380Z,4.33
2022-11-14T22:35:48.985Z,5.50
2022-11-14T22:38:36.295Z,5.00
2022-11-14T22:41:32.187Z,5.23
2022-11-14T22:44:19.745Z,3.83
2022-11-14T22:47:06.588Z,5.00
2022-11-14T22:49:53.549Z,4.67
2022-11-14T22:52:40.343Z,4.30
2022-11-14T22:55:27.303Z,4.40
2022-11-14T22:58:14.331Z,4.60
2022-11-14T23:01:01.657Z,4.00
2022-11-14T23:03:48.820Z,4.10
2022-11-14T23:06:35.465Z,4.43
2022-11-14T23:09:22.303Z,4.23
2022-11-14T23:12:09.134Z,4.73
2022-11-14T23:14:56.244Z,4.17
2022-11-14T23:17:43.262Z,3.47
2022-11-14T23:20:30.188Z,3.27
2022-11-14T23:23:17.073Z,3.57
2022-11-14T23:26:11.343Z,3.47
2022-11-14T23:28:58.379Z,3.70
2022-11-14T23:31:45.034Z,3.03
2022-11-14T23:34:31.729Z,3.10
2022-11-14T23:37:18.691Z,3.47
2022-11-14T23:40:06.057Z,3.30
2022-11-14T23:42:52.550Z,3.20
2022-11-14T23:45:43.118Z,3.60
2022-11-14T23:48:29.673Z,2.90
2022-11-14T23:51:17.798Z,2.90
2022-11-14T23:54:04.484Z,3.07
2022-11-14T23:56:51.524Z,3.00
2022-11-14T23:59:38.564Z,2.70
